createdAt,value
2023-01-28T00:00:24.229Z,25.57
2023-01-28T00:00:56.607Z,25.66
2023-01-28T00:01:29.072Z,25.47
2023-01-28T00:02:01.455Z,25.74
2023-01-28T00:02:37.067Z,25.67
2023-01-28T00:03:09.490Z,25.66
2023-01-28T00:03:42.131Z,25.72
2023-01-28T00:04:15.316Z,25.60
2023-01-28T00:04:47.727Z,25.59
2023-01-28T00:05:20.105Z,25.64
2023-01-28T00:05:54.196Z,25.54
2023-01-28T00:06:26.599Z,25.54
2023-01-28T00:06:59.004Z,25.72
2023-01-28T00:07:31.409Z,25.67
2023-01-28T00:08:03.825Z,25.65
2023-01-28T00:08:36.677Z,25.64
2023-01-28T00:09:09.609Z,25.65
2023-01-28T00:09:42.059Z,25.61
2023-01-28T00:10:14.655Z,25.64
2023-01-28T00:10:47.063Z,25.62
2023-01-28T00:11:19.443Z,25.69
2023-01-28T00:11:51.981Z,25.70
2023-01-28T00:12:24.432Z,25.56
2023-01-28T00:12:56.817Z,25.67
2023-01-28T00:13:29.580Z,25.62
2023-01-28T00:14:02.027Z,25.66
2023-01-28T00:14:34.849Z,25.62
2023-01-28T00:15:07.866Z,25.65
2023-01-28T00:15:40.240Z,25.69
2023-01-28T00:16:12.777Z,25.65
2023-01-28T00:16:45.354Z,25.60
2023-01-28T00:17:17.714Z,25.79
2023-01-28T00:17:50.086Z,25.75
2023-01-28T00:18:22.481Z,25.69
2023-01-28T00:18:55.370Z,25.85
2023-01-28T00:19:27.763Z,25.43
2023-01-28T00:20:00.181Z,25.50
2023-01-28T00:20:32.645Z,25.73
2023-01-28T00:21:11.851Z,25.68
2023-01-28T00:21:44.330Z,25.64
2023-01-28T00:22:16.784Z,25.54
2023-01-28T00:22:51.831Z,25.63
2023-01-28T00:23:24.538Z,25.57
2023-01-28T00:23:57.541Z,25.60
2023-01-28T00:24:30.111Z,25.69
2023-01-28T00:25:02.645Z,25.57
2023-01-28T00:25:35.062Z,25.57
2023-01-28T00:26:10.691Z,25.69
2023-01-28T00:26:43.803Z,25.69
2023-01-28T00:27:16.335Z,25.69
2023-01-28T00:27:50.800Z,25.68
2023-01-28T00:28:23.195Z,25.77
2023-01-28T00:28:55.697Z,25.63
2023-01-28T00:29:28.074Z,25.77
2023-01-28T00:30:00.518Z,25.72
2023-01-28T00:30:33.094Z,25.65
2023-01-28T00:31:13.975Z,25.74
2023-01-28T00:31:46.467Z,25.64
2023-01-28T00:32:18.875Z,25.73
2023-01-28T00:32:51.254Z,25.80
2023-01-28T00:33:24.223Z,25.88
2023-01-28T00:33:57.884Z,25.94
2023-01-28T00:34:30.283Z,25.82
2023-01-28T00:35:02.697Z,25.63
2023-01-28T00:35:35.076Z,25.60
2023-01-28T00:36:07.791Z,25.74
2023-01-28T00:36:42.202Z,25.70
2023-01-28T00:37:14.588Z,25.64
2023-01-28T00:37:47.516Z,25.71
2023-01-28T00:38:19.910Z,25.56
2023-01-28T00:38:57.651Z,25.61
2023-01-28T00:39:30.174Z,25.70
2023-01-28T00:40:02.591Z,25.67
2023-01-28T00:40:35.408Z,25.66
2023-01-28T00:41:16.187Z,25.59
2023-01-28T00:41:48.573Z,25.74
2023-01-28T00:42:21.011Z,25.61
2023-01-28T00:42:54.275Z,25.69
2023-01-28T00:43:26.721Z,25.67
2023-01-28T00:43:59.881Z,25.68
2023-01-28T00:44:32.276Z,25.70
2023-01-28T00:45:05.017Z,25.72
2023-01-28T00:45:39.056Z,25.76
2023-01-28T00:46:14.001Z,25.78
2023-01-28T00:46:46.696Z,25.68
2023-01-28T00:47:19.089Z,25.66
2023-01-28T00:47:51.518Z,25.84
2023-01-28T00:48:23.921Z,25.81
2023-01-28T00:48:56.467Z,25.72
2023-01-28T00:49:28.892Z,25.86
2023-01-28T00:50:01.286Z,25.86
2023-01-28T00:50:33.666Z,25.89
2023-01-28T00:51:06.391Z,25.79
2023-01-28T00:51:38.941Z,25.71
2023-01-28T00:52:11.371Z,25.79
2023-01-28T00:52:44.595Z,25.67
2023-01-28T00:53:17.262Z,25.61
2023-01-28T00:53:49.753Z,25.72
2023-01-28T00:54:22.196Z,25.78
2023-01-28T00:54:54.711Z,25.72
2023-01-28T00:55:28.258Z,25.78
2023-01-28T00:56:01.121Z,25.67
2023-01-28T00:56:33.975Z,25.66
2023-01-28T00:57:08.030Z,25.72
2023-01-28T00:57:40.455Z,25.72
2023-01-28T00:58:12.852Z,25.72
2023-01-28T00:58:45.757Z,25.68
2023-01-28T00:59:18.161Z,25.67
2023-01-28T00:59:50.541Z,25.66
2023-01-28T01:00:27.179Z,25.73
2023-01-28T01:01:09.421Z,25.66
2023-01-28T01:01:41.868Z,25.79
2023-01-28T01:02:14.418Z,25.83
2023-01-28T01:02:46.902Z,25.80
2023-01-28T01:03:20.254Z,25.77
2023-01-28T01:04:03.169Z,25.77
2023-01-28T01:04:35.686Z,25.92
2023-01-28T01:05:08.642Z,25.92
2023-01-28T01:05:41.035Z,25.91
2023-01-28T01:06:15.450Z,25.62
2023-01-28T01:06:47.847Z,25.68
2023-01-28T01:07:20.261Z,25.72
2023-01-28T01:07:52.678Z,25.85
2023-01-28T01:08:34.878Z,25.80
2023-01-28T01:09:12.722Z,25.75
2023-01-28T01:09:45.112Z,25.72
2023-01-28T01:10:20.238Z,25.73
2023-01-28T01:10:52.619Z,25.65
2023-01-28T01:11:25.014Z,25.72
2023-01-28T01:11:57.389Z,25.60
2023-01-28T01:12:29.813Z,25.68
2023-01-28T01:13:02.265Z,25.65
2023-01-28T01:13:35.192Z,25.65
2023-01-28T01:14:07.616Z,25.67
2023-01-28T01:14:39.987Z,25.72
2023-01-28T01:15:12.956Z,25.83
2023-01-28T01:15:45.577Z,25.75
2023-01-28T01:16:17.980Z,25.76
2023-01-28T01:16:50.421Z,25.73
2023-01-28T01:17:22.843Z,25.70
2023-01-28T01:17:55.226Z,25.75
2023-01-28T01:18:27.604Z,25.78
2023-01-28T01:19:00.416Z,25.72
2023-01-28T01:19:32.884Z,25.80
2023-01-28T01:20:06.970Z,25.83
2023-01-28T01:20:40.056Z,25.72
2023-01-28T01:21:15.975Z,25.75
2023-01-28T01:21:50.706Z,25.64
2023-01-28T01:22:23.420Z,25.85
2023-01-28T01:22:57.275Z,25.99
2023-01-28T01:23:31.367Z,25.65
2023-01-28T01:24:03.890Z,25.86
2023-01-28T01:24:36.277Z,25.87
2023-01-28T01:25:09.492Z,25.78
2023-01-28T01:25:41.890Z,25.68
2023-01-28T01:26:14.986Z,25.69
2023-01-28T01:26:47.371Z,25.76
2023-01-28T01:27:19.943Z,25.77
2023-01-28T01:27:52.326Z,25.66
2023-01-28T01:28:24.733Z,25.67
2023-01-28T01:28:57.168Z,25.76
2023-01-28T01:29:29.771Z,25.68
2023-01-28T01:30:02.200Z,25.76
2023-01-28T01:30:34.628Z,25.75
2023-01-28T01:31:15.927Z,25.96
2023-01-28T01:31:48.419Z,25.75
2023-01-28T01:32:22.309Z,25.76
2023-01-28T01:32:55.159Z,25.70
2023-01-28T01:33:29.825Z,25.80
2023-01-28T01:34:02.221Z,25.72
2023-01-28T01:34:34.663Z,25.59
2023-01-28T01:35:08.168Z,25.85
2023-01-28T01:35:40.589Z,25.82
2023-01-28T01:36:14.976Z,26.04
2023-01-28T01:36:47.373Z,25.99
2023-01-28T01:37:19.774Z,26.02
2023-01-28T01:37:52.172Z,25.78
2023-01-28T01:38:25.047Z,25.82
2023-01-28T01:38:57.613Z,25.81
2023-01-28T01:39:30.004Z,25.85
2023-01-28T01:40:03.988Z,25.91
2023-01-28T01:40:36.375Z,25.70
2023-01-28T01:41:21.685Z,25.77
2023-01-28T01:41:54.083Z,25.82
2023-01-28T01:42:26.457Z,25.71
2023-01-28T01:42:58.875Z,25.72
2023-01-28T01:43:52.318Z,25.83
2023-01-28T01:44:59.931Z,25.69
2023-01-28T01:45:34.323Z,25.79
2023-01-28T01:46:06.872Z,25.80
2023-01-28T01:46:44.909Z,25.78
2023-01-28T01:47:18.819Z,25.77
2023-01-28T01:48:04.242Z,25.77
2023-01-28T01:48:37.400Z,25.75
2023-01-28T01:49:12.569Z,25.72
2023-01-28T01:49:45.333Z,25.84
2023-01-28T01:50:17.691Z,25.74
2023-01-28T01:51:03.827Z,25.91
2023-01-28T01:51:37.576Z,25.92
2023-01-28T01:52:14.545Z,26.00
2023-01-28T01:52:50.207Z,26.04
2023-01-28T01:53:23.873Z,25.87
2023-01-28T01:53:58.712Z,25.80
2023-01-28T01:54:33.402Z,25.87
2023-01-28T01:55:14.038Z,25.83
2023-01-28T01:55:49.030Z,25.80
2023-01-28T01:56:25.554Z,25.87
2023-01-28T01:56:59.024Z,25.83
2023-01-28T01:57:34.275Z,25.76
2023-01-28T01:58:10.713Z,25.72
2023-01-28T01:58:46.187Z,25.84
2023-01-28T01:59:27.133Z,25.86
2023-01-28T02:00:06.200Z,25.79
2023-01-28T02:00:39.557Z,25.78
2023-01-28T02:01:12.586Z,25.72
2023-01-28T02:01:48.308Z,25.79
2023-01-28T02:02:20.911Z,25.78
2023-01-28T02:02:54.411Z,25.78
2023-01-28T02:03:37.982Z,25.85
2023-01-28T02:04:16.806Z,25.77
2023-01-28T02:04:49.203Z,25.75
2023-01-28T02:05:23.219Z,25.74
2023-01-28T02:05:55.625Z,25.84
2023-01-28T02:06:28.719Z,25.97
2023-01-28T02:07:02.632Z,25.91
2023-01-28T02:07:36.231Z,25.98
2023-01-28T02:08:21.169Z,25.85
2023-01-28T02:08:56.864Z,26.04
2023-01-28T02:09:36.199Z,25.88
2023-01-28T02:10:09.469Z,26.00
2023-01-28T02:10:41.881Z,25.93
2023-01-28T02:11:15.808Z,25.80
2023-01-28T02:11:48.448Z,25.71
2023-01-28T02:12:39.210Z,25.73
2023-01-28T02:13:11.648Z,25.89
2023-01-28T02:13:50.450Z,25.80
2023-01-28T02:14:30.918Z,25.78
2023-01-28T02:15:08.472Z,25.92
2023-01-28T02:15:40.876Z,25.83
2023-01-28T02:16:13.926Z,25.88
2023-01-28T02:16:46.564Z,25.77
2023-01-28T02:17:19.051Z,25.83
2023-01-28T02:17:52.151Z,25.91
2023-01-28T02:18:24.527Z,25.84
2023-01-28T02:18:56.926Z,25.82
2023-01-28T02:19:39.069Z,25.80
2023-01-28T02:20:14.140Z,25.75
2023-01-28T02:20:55.022Z,25.80
2023-01-28T02:22:04.017Z,25.81
2023-01-28T02:22:57.382Z,26.00
2023-01-28T02:23:58.844Z,25.96
2023-01-28T02:24:54.148Z,26.02
2023-01-28T02:26:06.518Z,26.09
2023-01-28T02:26:44.683Z,25.79
2023-01-28T02:27:29.370Z,25.80
2023-01-28T02:28:26.015Z,25.89
2023-01-28T02:29:19.223Z,25.77
2023-01-28T02:30:08.650Z,25.77
2023-01-28T02:30:45.303Z,25.70
2023-01-28T02:31:26.549Z,25.82
2023-01-28T02:32:24.611Z,25.66
2023-01-28T02:33:01.317Z,25.83
2023-01-28T02:34:03.648Z,25.80
2023-01-28T02:34:41.776Z,25.90
2023-01-28T02:35:23.717Z,25.82
2023-01-28T02:35:56.299Z,25.91
2023-01-28T02:36:54.819Z,25.82
2023-01-28T02:37:49.507Z,25.76
2023-01-28T02:38:27.707Z,25.85
2023-01-28T02:39:04.872Z,25.86
2023-01-28T02:39:45.371Z,26.08
2023-01-28T02:40:22.733Z,26.02
2023-01-28T02:41:05.131Z,25.93
2023-01-28T02:41:48.189Z,25.75
2023-01-28T02:42:22.123Z,25.83
2023-01-28T02:42:54.538Z,25.70
2023-01-28T02:43:41.802Z,25.85
2023-01-28T02:44:14.228Z,25.81
2023-01-28T02:44:46.635Z,25.85
2023-01-28T02:45:51.182Z,25.84
2023-01-28T02:46:54.848Z,25.78
2023-01-28T02:48:05.583Z,25.86
2023-01-28T02:48:37.973Z,25.87
2023-01-28T02:49:43.132Z,25.84
2023-01-28T02:50:17.460Z,25.85
2023-01-28T02:51:13.531Z,25.94
2023-01-28T02:51:48.853Z,25.81
2023-01-28T02:52:50.191Z,25.96
2023-01-28T02:54:45.403Z,26.02
2023-01-28T02:55:57.267Z,26.02
2023-01-28T02:57:02.762Z,25.96
2023-01-28T02:57:54.804Z,25.66
2023-01-28T02:58:37.275Z,25.76
2023-01-28T02:59:37.073Z,25.86
2023-01-28T03:00:26.897Z,25.82
2023-01-28T03:01:12.831Z,25.69
2023-01-28T03:01:51.390Z,25.74
2023-01-28T03:02:23.781Z,25.84
2023-01-28T03:03:17.491Z,25.82
2023-01-28T03:04:13.402Z,25.78
2023-01-28T03:04:50.552Z,25.84
2023-01-28T03:06:03.289Z,25.82
2023-01-28T03:06:46.728Z,25.77
2023-01-28T03:07:19.668Z,25.87
2023-01-28T03:07:53.292Z,25.97
2023-01-28T03:08:45.067Z,25.91
2023-01-28T03:09:28.351Z,25.90
2023-01-28T03:10:06.075Z,25.86
2023-01-28T03:10:38.777Z,25.95
2023-01-28T03:11:29.814Z,25.92
2023-01-28T03:12:20.969Z,25.81
2023-01-28T03:13:14.582Z,25.81
2023-01-28T03:14:07.113Z,25.83
2023-01-28T03:14:59.227Z,25.75
2023-01-28T03:15:57.693Z,25.82
2023-01-28T03:16:51.810Z,25.68
2023-01-28T03:17:47.587Z,25.67
2023-01-28T03:18:58.177Z,25.73
2023-01-28T03:19:48.985Z,25.91
2023-01-28T03:20:40.614Z,25.86
2023-01-28T03:21:45.913Z,25.84
2023-01-28T03:22:37.572Z,25.82
2023-01-28T03:23:31.249Z,25.89
2023-01-28T03:24:27.410Z,25.74
2023-01-28T03:25:20.030Z,25.83
2023-01-28T03:26:14.644Z,25.97
2023-01-28T03:27:21.832Z,25.94
2023-01-28T03:28:16.966Z,25.81
2023-01-28T03:29:10.051Z,25.83
2023-01-28T03:30:03.244Z,25.91
2023-01-28T03:31:12.253Z,25.84
2023-01-28T03:32:03.445Z,25.74
2023-01-28T03:32:55.630Z,25.62
2023-01-28T03:33:48.441Z,25.78
2023-01-28T03:34:41.742Z,25.80
2023-01-28T03:35:36.117Z,25.75
2023-01-28T03:36:27.683Z,25.76
2023-01-28T03:37:01.010Z,25.70
2023-01-28T03:37:35.064Z,25.78
2023-01-28T03:38:18.238Z,25.80
2023-01-28T03:38:50.966Z,25.78
2023-01-28T03:39:28.417Z,25.78
2023-01-28T03:40:06.253Z,25.72
2023-01-28T03:40:50.479Z,25.83
2023-01-28T03:41:26.163Z,25.91
2023-01-28T03:42:14.225Z,25.90
2023-01-28T03:42:46.655Z,25.92
2023-01-28T03:43:19.174Z,25.84
2023-01-28T03:43:52.198Z,25.71
2023-01-28T03:44:44.059Z,25.76
2023-01-28T03:45:16.876Z,25.70
2023-01-28T03:45:51.499Z,25.80
2023-01-28T03:46:23.982Z,25.73
2023-01-28T03:46:56.410Z,25.73
2023-01-28T03:47:30.539Z,25.63
2023-01-28T03:48:02.919Z,25.69
2023-01-28T03:48:35.345Z,25.85
2023-01-28T03:49:07.755Z,25.70
2023-01-28T03:49:45.695Z,25.84
2023-01-28T03:50:18.224Z,25.79
2023-01-28T03:50:51.045Z,25.69
2023-01-28T03:51:23.440Z,25.78
2023-01-28T03:51:55.824Z,25.79
2023-01-28T03:52:32.144Z,25.76
2023-01-28T03:53:16.313Z,25.83
2023-01-28T03:53:49.110Z,25.75
2023-01-28T03:54:21.511Z,25.76
2023-01-28T03:54:53.977Z,25.66
2023-01-28T03:55:26.485Z,25.80
2023-01-28T03:55:58.868Z,25.81
2023-01-28T03:56:37.556Z,25.89
2023-01-28T03:57:09.994Z,25.84
2023-01-28T03:57:44.774Z,25.97
2023-01-28T03:58:18.877Z,25.97
2023-01-28T03:58:56.612Z,25.90
2023-01-28T03:59:29.207Z,25.63
2023-01-28T04:00:01.593Z,25.74
2023-01-28T04:00:34.876Z,25.76
2023-01-28T04:01:07.288Z,25.84
2023-01-28T04:01:39.683Z,25.80
2023-01-28T04:02:13.241Z,25.71
2023-01-28T04:02:46.222Z,25.66
2023-01-28T04:03:20.509Z,25.67
2023-01-28T04:03:52.981Z,25.66
2023-01-28T04:04:25.524Z,25.76
2023-01-28T04:04:59.014Z,25.66
2023-01-28T04:05:31.883Z,25.69
2023-01-28T04:06:07.437Z,25.77
2023-01-28T04:06:39.985Z,25.86
2023-01-28T04:07:15.403Z,25.79
2023-01-28T04:07:47.803Z,25.84
2023-01-28T04:08:20.231Z,25.80
2023-01-28T04:08:59.289Z,25.83
2023-01-28T04:09:31.824Z,25.70
2023-01-28T04:10:04.328Z,25.86
2023-01-28T04:10:36.695Z,25.88
2023-01-28T04:11:20.055Z,26.01
2023-01-28T04:11:52.583Z,25.83
2023-01-28T04:12:25.011Z,25.98
2023-01-28T04:12:57.403Z,25.89
2023-01-28T04:13:29.782Z,26.01
2023-01-28T04:14:02.176Z,26.01
2023-01-28T04:14:34.571Z,25.73
2023-01-28T04:15:16.051Z,25.81
2023-01-28T04:15:49.408Z,25.77
2023-01-28T04:16:21.952Z,25.75
2023-01-28T04:16:55.065Z,25.71
2023-01-28T04:17:27.473Z,25.71
2023-01-28T04:18:00.918Z,25.73
2023-01-28T04:18:33.357Z,25.73
2023-01-28T04:19:05.739Z,25.79
2023-01-28T04:19:38.607Z,25.87
2023-01-28T04:20:12.364Z,25.80
2023-01-28T04:20:44.763Z,25.78
2023-01-28T04:21:17.191Z,25.87
2023-01-28T04:21:49.770Z,25.87
2023-01-28T04:22:22.146Z,25.85
2023-01-28T04:22:54.528Z,25.78
2023-01-28T04:23:27.058Z,25.83
2023-01-28T04:23:59.474Z,25.80
2023-01-28T04:24:31.961Z,25.77
2023-01-28T04:25:04.505Z,25.83
2023-01-28T04:25:36.952Z,25.78
2023-01-28T04:26:09.331Z,25.79
2023-01-28T04:26:42.239Z,25.84
2023-01-28T04:27:14.611Z,25.91
2023-01-28T04:27:47.014Z,25.89
2023-01-28T04:28:19.496Z,25.99
2023-01-28T04:28:51.985Z,26.05
2023-01-28T04:29:24.405Z,25.97
2023-01-28T04:29:56.801Z,26.07
2023-01-28T04:30:29.320Z,26.02
2023-01-28T04:31:01.857Z,25.72
2023-01-28T04:31:35.161Z,25.82
2023-01-28T04:32:09.338Z,25.90
2023-01-28T04:32:43.005Z,25.94
2023-01-28T04:33:15.900Z,25.92
2023-01-28T04:33:48.281Z,25.72
2023-01-28T04:34:20.669Z,25.73
2023-01-28T04:34:53.086Z,25.73
2023-01-28T04:35:25.449Z,25.80
2023-01-28T04:35:57.879Z,25.81
2023-01-28T04:36:30.294Z,25.85
2023-01-28T04:37:02.691Z,25.82
2023-01-28T04:37:35.099Z,25.88
2023-01-28T04:38:07.609Z,25.83
2023-01-28T04:38:39.991Z,25.79
2023-01-28T04:39:12.401Z,25.88
2023-01-28T04:39:44.806Z,25.84
2023-01-28T04:40:17.377Z,25.80
2023-01-28T04:40:53.622Z,25.88
2023-01-28T04:41:26.052Z,25.77
2023-01-28T04:41:58.455Z,25.89
2023-01-28T04:42:30.831Z,25.84
2023-01-28T04:43:03.244Z,25.90
2023-01-28T04:43:35.733Z,25.78
2023-01-28T04:44:08.121Z,25.97
2023-01-28T04:44:40.528Z,25.94
2023-01-28T04:45:13.149Z,25.83
2023-01-28T04:45:45.671Z,26.05
2023-01-28T04:46:18.154Z,25.76
2023-01-28T04:46:50.649Z,25.90
2023-01-28T04:47:23.080Z,25.86
2023-01-28T04:47:55.467Z,25.86
2023-01-28T04:48:27.912Z,25.82
2023-01-28T04:49:00.906Z,25.74
2023-01-28T04:49:33.294Z,25.84
2023-01-28T04:50:06.040Z,25.79
2023-01-28T04:50:38.430Z,25.74
2023-01-28T04:51:10.835Z,25.74
2023-01-28T04:51:43.248Z,25.86
2023-01-28T04:52:15.703Z,25.84
2023-01-28T04:52:48.096Z,25.74
2023-01-28T04:53:20.497Z,25.70
2023-01-28T04:53:52.897Z,25.84
2023-01-28T04:54:25.276Z,25.85
2023-01-28T04:54:57.735Z,25.87
2023-01-28T04:55:30.173Z,25.89
2023-01-28T04:56:02.589Z,25.88
2023-01-28T04:56:34.977Z,25.87
2023-01-28T04:57:07.376Z,25.78
2023-01-28T04:57:39.746Z,25.78
2023-01-28T04:58:12.181Z,25.77
2023-01-28T04:58:44.590Z,25.80
2023-01-28T04:59:17.156Z,25.86
2023-01-28T04:59:49.586Z,25.86
2023-01-28T05:00:22.285Z,25.83
2023-01-28T05:00:59.121Z,25.89
2023-01-28T05:01:31.558Z,25.90
2023-01-28T05:02:04.083Z,25.75
2023-01-28T05:02:36.481Z,25.87
2023-01-28T05:03:08.881Z,25.72
2023-01-28T05:03:41.275Z,25.73
2023-01-28T05:04:13.682Z,25.86
2023-01-28T05:04:46.147Z,25.84
2023-01-28T05:05:18.636Z,25.84
2023-01-28T05:05:51.288Z,25.77
2023-01-28T05:06:23.736Z,25.70
2023-01-28T05:06:56.159Z,25.74
2023-01-28T05:07:28.539Z,25.91
2023-01-28T05:08:00.964Z,25.84
2023-01-28T05:08:33.369Z,25.80
2023-01-28T05:09:05.796Z,25.82
2023-01-28T05:09:38.460Z,25.85
2023-01-28T05:10:11.428Z,25.81
2023-01-28T05:10:43.852Z,25.83
2023-01-28T05:11:16.313Z,25.85
2023-01-28T05:11:48.730Z,25.82
2023-01-28T05:12:21.142Z,25.86
2023-01-28T05:12:53.731Z,25.80
2023-01-28T05:13:26.233Z,25.86
2023-01-28T05:13:58.615Z,25.80
2023-01-28T05:14:31.072Z,25.88
2023-01-28T05:15:04.351Z,26.01
2023-01-28T05:15:36.912Z,25.96
2023-01-28T05:16:09.342Z,25.92
2023-01-28T05:16:41.760Z,26.06
2023-01-28T05:17:14.185Z,26.02
2023-01-28T05:17:47.447Z,25.76
2023-01-28T05:18:19.845Z,25.80
2023-01-28T05:18:52.278Z,25.88
2023-01-28T05:19:24.653Z,25.79
2023-01-28T05:19:57.015Z,25.86
2023-01-28T05:20:29.367Z,25.85
2023-01-28T05:21:01.727Z,25.84
2023-01-28T05:21:34.130Z,25.81
2023-01-28T05:22:06.503Z,25.82
2023-01-28T05:22:39.082Z,25.98
2023-01-28T05:23:11.460Z,25.85
2023-01-28T05:23:43.948Z,25.80
2023-01-28T05:24:16.855Z,25.90
2023-01-28T05:24:49.256Z,25.90
2023-01-28T05:25:21.663Z,25.78
2023-01-28T05:25:54.076Z,25.83
2023-01-28T05:26:26.473Z,25.80
2023-01-28T05:26:58.884Z,25.88
2023-01-28T05:27:32.768Z,25.69
2023-01-28T05:28:05.285Z,25.75
2023-01-28T05:28:38.092Z,25.77
2023-01-28T05:29:10.675Z,25.80
2023-01-28T05:29:43.101Z,25.85
2023-01-28T05:30:15.762Z,25.79
2023-01-28T05:30:48.439Z,25.82
2023-01-28T05:31:20.868Z,25.92
2023-01-28T05:31:53.237Z,25.87
2023-01-28T05:32:26.077Z,26.02
2023-01-28T05:32:58.898Z,26.00
2023-01-28T05:33:31.547Z,25.89
2023-01-28T05:34:03.944Z,26.01
2023-01-28T05:34:36.464Z,25.73
2023-01-28T05:35:09.247Z,25.92
2023-01-28T05:35:43.310Z,25.94
2023-01-28T05:36:15.699Z,25.81
2023-01-28T05:36:48.071Z,25.91
2023-01-28T05:37:20.450Z,25.88
2023-01-28T05:37:52.915Z,25.84
2023-01-28T05:38:25.301Z,25.83
2023-01-28T05:38:57.818Z,25.85
2023-01-28T05:39:31.467Z,25.89
2023-01-28T05:40:03.903Z,25.90
2023-01-28T05:40:36.410Z,25.83
2023-01-28T05:41:08.821Z,25.79
2023-01-28T05:41:41.223Z,25.88
2023-01-28T05:42:15.259Z,25.80
2023-01-28T05:42:47.660Z,25.90
2023-01-28T05:43:20.125Z,25.92
2023-01-28T05:43:52.512Z,25.91
2023-01-28T05:44:24.903Z,25.79
2023-01-28T05:44:57.323Z,25.85
2023-01-28T05:45:29.756Z,25.77
2023-01-28T05:46:02.224Z,25.88
2023-01-28T05:46:34.686Z,25.96
2023-01-28T05:47:07.071Z,26.10
2023-01-28T05:47:39.855Z,26.11
2023-01-28T05:48:12.325Z,26.09
2023-01-28T05:48:45.611Z,26.06
2023-01-28T05:49:17.999Z,26.04
2023-01-28T05:49:50.371Z,25.92
2023-01-28T05:50:22.838Z,25.75
2023-01-28T05:50:55.258Z,25.83
2023-01-28T05:51:27.659Z,25.92
2023-01-28T05:52:01.490Z,25.82
2023-01-28T05:52:34.202Z,25.65
2023-01-28T05:53:09.943Z,25.70
2023-01-28T05:53:42.339Z,25.83
2023-01-28T05:54:15.154Z,25.76
2023-01-28T05:54:47.662Z,25.90
2023-01-28T05:55:20.952Z,25.87
2023-01-28T05:55:54.476Z,25.97
2023-01-28T05:56:26.859Z,25.89
2023-01-28T05:56:59.249Z,25.83
2023-01-28T05:57:31.664Z,25.90
2023-01-28T05:58:04.116Z,25.86
2023-01-28T05:58:36.502Z,25.87
2023-01-28T05:59:10.378Z,25.89
2023-01-28T05:59:42.813Z,25.85
2023-01-28T06:00:16.375Z,25.82
2023-01-28T06:00:49.345Z,25.81
2023-01-28T06:01:21.769Z,25.83
2023-01-28T06:01:54.132Z,25.97
2023-01-28T06:02:26.529Z,25.99
2023-01-28T06:02:58.930Z,26.00
2023-01-28T06:03:31.286Z,26.05
2023-01-28T06:04:04.205Z,25.89
2023-01-28T06:04:36.627Z,26.05
2023-01-28T06:05:09.955Z,26.06
2023-01-28T06:05:42.438Z,25.93
2023-01-28T06:06:14.832Z,26.03
2023-01-28T06:06:47.382Z,26.05
2023-01-28T06:07:20.324Z,26.07
2023-01-28T06:07:52.755Z,25.94
2023-01-28T06:08:25.173Z,25.89
2023-01-28T06:08:57.659Z,25.88
2023-01-28T06:09:30.058Z,25.95
2023-01-28T06:10:02.615Z,25.83
2023-01-28T06:10:35.091Z,25.93
2023-01-28T06:11:07.687Z,25.89
2023-01-28T06:11:40.083Z,25.95
2023-01-28T06:12:12.442Z,25.90
2023-01-28T06:12:45.208Z,25.85
2023-01-28T06:13:17.603Z,25.92
2023-01-28T06:13:49.983Z,25.86
2023-01-28T06:14:22.469Z,25.95
2023-01-28T06:14:54.939Z,25.96
2023-01-28T06:15:27.329Z,25.92
2023-01-28T06:15:59.851Z,25.87
2023-01-28T06:16:32.297Z,25.87
2023-01-28T06:17:04.670Z,25.93
2023-01-28T06:17:37.071Z,25.87
2023-01-28T06:18:09.455Z,25.84
2023-01-28T06:18:41.849Z,25.98
2023-01-28T06:19:14.269Z,26.00
2023-01-28T06:19:46.723Z,26.13
2023-01-28T06:20:19.330Z,26.02
2023-01-28T06:20:52.501Z,26.03
2023-01-28T06:21:24.993Z,26.19
2023-01-28T06:21:57.438Z,25.89
2023-01-28T06:22:29.842Z,25.96
2023-01-28T06:23:02.499Z,25.95
2023-01-28T06:23:34.880Z,25.84
2023-01-28T06:24:07.344Z,25.84
2023-01-28T06:24:39.779Z,25.99
2023-01-28T06:25:12.154Z,25.92
2023-01-28T06:25:44.580Z,25.91
2023-01-28T06:26:17.044Z,25.92
2023-01-28T06:26:49.426Z,25.93
2023-01-28T06:27:21.779Z,25.98
2023-01-28T06:27:54.195Z,26.02
2023-01-28T06:28:26.782Z,26.05
2023-01-28T06:28:59.278Z,25.98
2023-01-28T06:29:31.657Z,25.99
2023-01-28T06:30:04.360Z,26.09
2023-01-28T06:30:36.820Z,26.08
2023-01-28T06:31:09.302Z,25.93
2023-01-28T06:31:41.739Z,25.95
2023-01-28T06:32:14.160Z,25.91
2023-01-28T06:32:47.197Z,25.92
2023-01-28T06:33:20.824Z,26.04
2023-01-28T06:33:53.240Z,26.03
2023-01-28T06:34:25.776Z,26.14
2023-01-28T06:34:58.171Z,26.27
2023-01-28T06:35:30.681Z,26.29
2023-01-28T06:36:04.535Z,26.04
2023-01-28T06:36:40.419Z,26.14
2023-01-28T06:37:16.340Z,26.04
2023-01-28T06:37:48.735Z,25.93
2023-01-28T06:38:21.151Z,25.96
2023-01-28T06:38:53.558Z,25.97
2023-01-28T06:39:27.835Z,25.96
2023-01-28T06:40:00.235Z,25.98
2023-01-28T06:40:32.668Z,25.90
2023-01-28T06:41:05.278Z,25.97
2023-01-28T06:41:37.686Z,25.90
2023-01-28T06:42:10.085Z,25.92
2023-01-28T06:42:42.512Z,25.97
2023-01-28T06:43:14.897Z,25.98
2023-01-28T06:43:47.346Z,25.95
2023-01-28T06:44:20.057Z,26.02
2023-01-28T06:44:52.447Z,26.09
2023-01-28T06:45:24.831Z,26.06
2023-01-28T06:45:58.475Z,26.15
2023-01-28T06:46:30.888Z,26.17
2023-01-28T06:47:03.589Z,26.06
2023-01-28T06:47:35.998Z,26.08
2023-01-28T06:48:08.933Z,26.08
2023-01-28T06:48:41.423Z,26.13
2023-01-28T06:49:13.791Z,26.14
2023-01-28T06:49:46.189Z,26.15
2023-01-28T06:50:18.622Z,26.16
2023-01-28T06:50:51.264Z,26.21
2023-01-28T06:51:23.662Z,26.03
2023-01-28T06:51:56.054Z,26.22
2023-01-28T06:52:28.470Z,26.16
2023-01-28T06:53:00.854Z,26.22
2023-01-28T06:53:33.257Z,26.20
2023-01-28T06:54:05.839Z,26.11
2023-01-28T06:54:38.237Z,26.06
2023-01-28T06:55:10.997Z,26.09
2023-01-28T06:55:43.540Z,26.00
2023-01-28T06:56:15.959Z,25.95
2023-01-28T06:56:48.359Z,26.04
2023-01-28T06:57:20.759Z,26.10
2023-01-28T06:57:53.156Z,26.18
2023-01-28T06:58:25.605Z,26.14
2023-01-28T06:58:57.984Z,26.13
2023-01-28T06:59:30.422Z,26.07
2023-01-28T07:00:02.838Z,26.12
2023-01-28T07:00:35.245Z,26.11
2023-01-28T07:01:07.633Z,26.13
2023-01-28T07:01:40.170Z,26.15
2023-01-28T07:02:12.932Z,26.19
2023-01-28T07:02:45.344Z,26.25
2023-01-28T07:03:17.837Z,26.04
2023-01-28T07:03:50.280Z,26.08
2023-01-28T07:04:22.997Z,26.26
2023-01-28T07:04:55.439Z,26.24
2023-01-28T07:05:28.180Z,26.40
2023-01-28T07:06:00.577Z,26.34
2023-01-28T07:06:32.963Z,26.27
2023-01-28T07:07:05.422Z,26.31
2023-01-28T07:07:39.520Z,26.15
2023-01-28T07:08:13.242Z,26.26
2023-01-28T07:08:45.739Z,26.14
2023-01-28T07:09:18.134Z,26.16
2023-01-28T07:09:50.516Z,26.04
2023-01-28T07:10:22.939Z,26.08
2023-01-28T07:10:55.320Z,26.04
2023-01-28T07:11:27.714Z,26.06
2023-01-28T07:12:00.130Z,26.06
2023-01-28T07:12:32.514Z,26.20
2023-01-28T07:13:05.031Z,26.10
2023-01-28T07:13:37.458Z,26.08
2023-01-28T07:14:09.846Z,26.25
2023-01-28T07:14:42.223Z,26.15
2023-01-28T07:15:15.293Z,26.13
2023-01-28T07:15:48.922Z,26.13
2023-01-28T07:16:21.388Z,26.18
2023-01-28T07:16:53.924Z,26.13
2023-01-28T07:17:26.400Z,26.07
2023-01-28T07:17:59.714Z,26.09
2023-01-28T07:18:32.239Z,26.20
2023-01-28T07:19:04.775Z,26.23
2023-01-28T07:19:37.263Z,26.24
2023-01-28T07:20:12.735Z,26.18
2023-01-28T07:20:45.856Z,26.23
2023-01-28T07:21:18.314Z,26.29
2023-01-28T07:21:50.710Z,26.16
2023-01-28T07:22:23.193Z,26.34
2023-01-28T07:22:55.560Z,26.11
2023-01-28T07:23:29.071Z,26.28
2023-01-28T07:24:01.664Z,26.40
2023-01-28T07:24:34.920Z,26.32
2023-01-28T07:25:08.255Z,26.45
2023-01-28T07:25:40.685Z,26.29
2023-01-28T07:26:13.076Z,26.19
2023-01-28T07:26:45.488Z,26.24
2023-01-28T07:27:17.886Z,26.34
2023-01-28T07:27:52.490Z,26.21
2023-01-28T07:28:24.867Z,26.32
2023-01-28T07:28:57.312Z,26.31
2023-01-28T07:29:29.748Z,26.33
2023-01-28T07:30:02.147Z,26.19
2023-01-28T07:30:34.595Z,26.30
2023-01-28T07:31:07.046Z,26.52
2023-01-28T07:31:39.512Z,26.40
2023-01-28T07:32:12.033Z,26.41
2023-01-28T07:32:44.506Z,26.46
2023-01-28T07:33:17.045Z,26.30
2023-01-28T07:33:49.463Z,26.27
2023-01-28T07:34:21.850Z,26.53
2023-01-28T07:34:54.876Z,26.63
2023-01-28T07:35:27.918Z,26.21
2023-01-28T07:36:00.391Z,26.06